createdAt,value
2023-04-18T00:02:18.152Z,90959.81
2023-04-18T00:04:47.629Z,90958.81
2023-04-18T00:07:15.178Z,90950.47
2023-04-18T00:09:41.886Z,90950.72
2023-04-18T00:12:08.208Z,90954.94
2023-04-18T00:14:35.241Z,90952.91
2023-04-18T00:17:02.374Z,90948.13
2023-04-18T00:19:28.698Z,90944.47
2023-04-18T00:21:55.848Z,90947.03
2023-04-18T00:24:22.187Z,90953.13
2023-04-18T00:26:48.887Z,90947.13
2023-04-18T00:29:15.285Z,90949.50
2023-04-18T00:31:41.578Z,90951.84
2023-04-18T00:34:07.868Z,90942.53
2023-04-18T00:36:34.141Z,90945.81
2023-04-18T00:39:00.431Z,90936.81
2023-04-18T00:41:28.146Z,90934.81
2023-04-18T00:43:54.824Z,90931.47
2023-04-18T00:46:21.139Z,90940.31
2023-04-18T00:48:47.485Z,90939.00
2023-04-18T00:51:13.819Z,90935.13
2023-04-18T00:53:40.736Z,90942.34
2023-04-18T00:56:07.482Z,90937.44
2023-04-18T00:58:33.782Z,90937.91
2023-04-18T01:01:00.250Z,90944.81
2023-04-18T01:03:26.623Z,90935.03
2023-04-18T01:05:57.355Z,90929.03
2023-04-18T01:08:23.699Z,90928.31
2023-04-18T01:10:50.297Z,90933.09
2023-04-18T01:13:17.147Z,90933.16
2023-04-18T01:15:46.808Z,90934.91
2023-04-18T01:18:13.322Z,90932.91
2023-04-18T01:20:41.341Z,90935.94
2023-04-18T01:23:10.154Z,90930.03
2023-04-18T01:25:36.440Z,90929.38
2023-04-18T01:28:04.452Z,90936.19
2023-04-18T01:30:31.022Z,90932.13
2023-04-18T01:32:57.372Z,90924.00
2023-04-18T01:35:23.663Z,90928.31
2023-04-18T01:37:49.935Z,90927.06
2023-04-18T01:40:16.238Z,90919.63
2023-04-18T01:42:42.589Z,90920.00
2023-04-18T01:45:08.991Z,90919.69
2023-04-18T01:47:35.655Z,90917.91
2023-04-18T01:50:02.437Z,90915.22
2023-04-18T01:52:28.709Z,90915.91
2023-04-18T01:54:54.997Z,90912.25
2023-04-18T01:57:21.278Z,90915.44
2023-04-18T01:59:47.561Z,90918.56
2023-04-18T02:02:13.972Z,90916.22
2023-04-18T02:04:40.764Z,90918.50
2023-04-18T02:07:07.081Z,90918.13
2023-04-18T02:09:33.415Z,90919.94
2023-04-18T02:12:01.773Z,90921.34
2023-04-18T02:14:29.950Z,90924.22
2023-04-18T02:16:56.297Z,90917.03
2023-04-18T02:19:24.227Z,90924.25
2023-04-18T02:21:50.826Z,90923.59
2023-04-18T02:24:17.279Z,90924.94
2023-04-18T02:26:43.768Z,90920.41
2023-04-18T02:29:10.676Z,90920.28
2023-04-18T02:31:37.414Z,90934.78
2023-04-18T02:34:03.821Z,90923.31
2023-04-18T02:36:30.870Z,90927.56
2023-04-18T02:38:57.151Z,90929.84
2023-04-18T02:41:23.477Z,90922.75
2023-04-18T02:43:49.783Z,90927.00
2023-04-18T02:46:16.140Z,90925.91
2023-04-18T02:48:42.427Z,90930.66
2023-04-18T02:51:08.779Z,90934.50
2023-04-18T02:53:35.168Z,90932.00
2023-04-18T02:56:01.514Z,90927.56
2023-04-18T02:58:27.815Z,90933.78
2023-04-18T03:00:54.500Z,90925.22
2023-04-18T03:03:20.996Z,90932.28
2023-04-18T03:05:47.316Z,90934.63
2023-04-18T03:08:13.629Z,90929.22
2023-04-18T03:10:40.058Z,90935.03
2023-04-18T03:13:06.412Z,90928.41
2023-04-18T03:15:32.730Z,90931.59
2023-04-18T03:17:59.036Z,90935.84
2023-04-18T03:20:25.556Z,90933.53
2023-04-18T03:22:52.443Z,90930.91
2023-04-18T03:25:18.724Z,90934.94
2023-04-18T03:27:45.076Z,90943.22
2023-04-18T03:30:11.411Z,90937.56
2023-04-18T03:32:38.509Z,90937.75
2023-04-18T03:35:05.037Z,90948.81
2023-04-18T03:37:31.334Z,90947.09
2023-04-18T03:39:57.638Z,90949.41
2023-04-18T03:42:24.101Z,90948.38
2023-04-18T03:44:50.514Z,90937.66
2023-04-18T03:47:16.947Z,90949.75
2023-04-18T03:49:43.239Z,90946.38
2023-04-18T03:52:09.534Z,90948.28
2023-04-18T03:54:35.865Z,90952.47
2023-04-18T03:57:03.015Z,90948.78
2023-04-18T03:59:29.528Z,90954.44
2023-04-18T04:01:56.085Z,90952.38
2023-04-18T04:04:22.451Z,90947.31
2023-04-18T04:06:48.905Z,90950.00
2023-04-18T04:09:15.279Z,90954.19
2023-04-18T04:11:41.554Z,90950.53
2023-04-18T04:14:07.863Z,90955.09
2023-04-18T04:16:34.170Z,90952.47
2023-04-18T04:19:00.463Z,90952.53
2023-04-18T04:21:27.552Z,90949.19
2023-04-18T04:23:53.843Z,90958.84
2023-04-18T04:26:23.208Z,90958.50
2023-04-18T04:28:49.722Z,90961.97
2023-04-18T04:31:16.329Z,90954.78
2023-04-18T04:33:43.551Z,90957.44
2023-04-18T04:36:09.842Z,90956.38
2023-04-18T04:38:38.337Z,90962.00
2023-04-18T04:41:06.672Z,90962.34
2023-04-18T04:43:33.358Z,90964.81
2023-04-18T04:45:59.671Z,90965.34
2023-04-18T04:48:26.042Z,90966.59
2023-04-18T04:50:52.960Z,90976.75
2023-04-18T04:53:19.262Z,90971.09
2023-04-18T04:55:45.710Z,90973.75
2023-04-18T04:58:12.007Z,90978.09
2023-04-18T05:00:38.301Z,90975.47
2023-04-18T05:03:04.688Z,90983.38
2023-04-18T05:05:31.051Z,90976.38
2023-04-18T05:07:57.331Z,90988.31
2023-04-18T05:10:23.931Z,90980.78
2023-04-18T05:12:50.272Z,90997.63
2023-04-18T05:15:16.577Z,90992.19
2023-04-18T05:17:42.860Z,91000.59
2023-04-18T05:20:09.973Z,90984.78
2023-04-18T05:22:36.333Z,90988.97
2023-04-18T05:25:02.626Z,90981.75
2023-04-18T05:27:28.940Z,90991.25
2023-04-18T05:29:55.299Z,90991.25
2023-04-18T05:32:21.628Z,90989.69
2023-04-18T05:34:48.148Z,90993.38
2023-04-18T05:37:14.531Z,91004.38
2023-04-18T05:39:41.542Z,91008.19
2023-04-18T05:42:07.835Z,91007.47
2023-04-18T05:44:34.115Z,91008.66
2023-04-18T05:47:00.462Z,91008.97
2023-04-18T05:49:26.737Z,90997.66
2023-04-18T05:51:53.091Z,91006.28
2023-04-18T05:54:21.318Z,91002.91
2023-04-18T05:56:47.714Z,91005.22
2023-04-18T05:59:13.982Z,91011.53
2023-04-18T06:01:40.258Z,91009.56
2023-04-18T06:04:07.467Z,91014.22
2023-04-18T06:06:34.681Z,91015.34
2023-04-18T06:09:00.959Z,91015.97
2023-04-18T06:11:27.281Z,91006.72
2023-04-18T06:13:55.937Z,91017.81
2023-04-18T06:16:22.261Z,91009.63
2023-04-18T06:18:48.570Z,91016.13
2023-04-18T06:21:14.864Z,91018.78
2023-04-18T06:23:41.165Z,91015.34
2023-04-18T06:26:07.707Z,91012.16
2023-04-18T06:28:34.007Z,91017.69
2023-04-18T06:31:00.291Z,91008.31
2023-04-18T06:33:26.562Z,91014.84
2023-04-18T06:35:52.878Z,91012.31
2023-04-18T06:38:19.180Z,91017.13
2023-04-18T06:40:45.471Z,91017.13
2023-04-18T06:43:11.766Z,91014.31
2023-04-18T06:45:38.106Z,91011.84
2023-04-18T06:48:04.593Z,91022.78
2023-04-18T06:50:31.013Z,91006.56
2023-04-18T06:52:57.356Z,91009.31
2023-04-18T06:55:23.640Z,91003.78
2023-04-18T06:57:49.947Z,91006.22
2023-04-18T07:00:16.384Z,91009.00
2023-04-18T07:02:42.817Z,91009.50
2023-04-18T07:05:09.297Z,90998.66
2023-04-18T07:07:35.605Z,91003.91
2023-04-18T07:10:01.959Z,90999.78
2023-04-18T07:12:28.279Z,90995.25
2023-04-18T07:14:54.617Z,90999.34
2023-04-18T07:17:20.985Z,90995.19
2023-04-18T07:19:47.310Z,90997.16
2023-04-18T07:22:13.621Z,90992.72
2023-04-18T07:24:39.971Z,90994.34
2023-04-18T07:27:06.462Z,90992.84
2023-04-18T07:29:32.844Z,90991.59
2023-04-18T07:31:59.173Z,90993.88
2023-04-18T07:34:27.079Z,90983.38
2023-04-18T07:36:53.349Z,90987.16
2023-04-18T07:39:19.654Z,90986.84
2023-04-18T07:41:46.053Z,90985.25
2023-04-18T07:44:12.585Z,90984.38
2023-04-18T07:46:39.148Z,90986.75
2023-04-18T07:49:06.049Z,90979.91
2023-04-18T07:51:32.373Z,90987.63
2023-04-18T07:53:59.225Z,90972.28
2023-04-18T07:56:25.826Z,90976.00
2023-04-18T07:58:52.329Z,90980.59
2023-04-18T08:01:20.865Z,90979.41
2023-04-18T08:03:48.154Z,90979.56
2023-04-18T08:06:14.618Z,90967.31
2023-04-18T08:08:41.004Z,90981.25
2023-04-18T08:11:07.305Z,90981.16
2023-04-18T08:13:33.626Z,90974.34
2023-04-18T08:16:00.100Z,90980.63
2023-04-18T08:18:26.593Z,90976.50
2023-04-18T08:20:52.871Z,90974.75
2023-04-18T08:23:19.143Z,90974.09
2023-04-18T08:25:45.701Z,90975.50
2023-04-18T08:28:12.478Z,90971.88
2023-04-18T08:30:38.770Z,90975.50
2023-04-18T08:33:05.176Z,90970.22
2023-04-18T08:35:31.535Z,90972.31
2023-04-18T08:37:57.822Z,90973.84
2023-04-18T08:40:24.137Z,90981.50
2023-04-18T08:42:51.248Z,90977.13
2023-04-18T08:45:17.570Z,90971.34
2023-04-18T08:47:43.962Z,90983.41
2023-04-18T08:50:10.378Z,90976.72
2023-04-18T08:52:37.591Z,90976.72
2023-04-18T08:55:04.231Z,90975.91
2023-04-18T08:57:31.195Z,90974.06
2023-04-18T08:59:57.613Z,90977.50
2023-04-18T09:02:35.027Z,90979.06
2023-04-18T09:05:02.333Z,90978.19
2023-04-18T09:07:28.838Z,90974.47
2023-04-18T09:09:57.159Z,90975.78
2023-04-18T09:12:24.038Z,90975.41
2023-04-18T09:14:51.418Z,90970.88
2023-04-18T09:17:33.502Z,90969.75
2023-04-18T09:20:00.122Z,90967.28
2023-04-18T09:22:27.083Z,90969.25
2023-04-18T09:24:55.469Z,90973.31
2023-04-18T09:27:24.735Z,90968.50
2023-04-18T09:29:51.865Z,90956.38
2023-04-18T09:32:25.026Z,90961.81
2023-04-18T09:34:54.240Z,90964.09
2023-04-18T09:37:21.151Z,90968.97
2023-04-18T09:39:47.470Z,90961.69
2023-04-18T09:42:13.946Z,90958.22
2023-04-18T09:44:58.397Z,90953.78
2023-04-18T09:47:24.757Z,90952.25
2023-04-18T09:49:51.204Z,90955.31
2023-04-18T09:52:17.997Z,90948.63
2023-04-18T09:54:46.570Z,90952.25
2023-04-18T09:57:14.460Z,90958.38
2023-04-18T10:00:00.192Z,90954.91
2023-04-18T10:02:26.535Z,90947.09
2023-04-18T10:04:52.997Z,90948.06
2023-04-18T10:07:19.604Z,90947.94
2023-04-18T10:09:46.001Z,90936.75
2023-04-18T10:12:12.531Z,90929.34
2023-04-18T10:14:42.851Z,90929.19
2023-04-18T10:17:09.508Z,90935.50
2023-04-18T10:19:35.864Z,90932.41
2023-04-18T10:22:02.176Z,90929.84
2023-04-18T10:24:52.871Z,90920.72
2023-04-18T10:27:19.739Z,90922.69
2023-04-18T10:29:50.075Z,90921.44
2023-04-18T10:32:16.948Z,90926.84
2023-04-18T10:34:43.424Z,90912.25
2023-04-18T10:37:09.781Z,90910.06
2023-04-18T10:39:48.520Z,90907.16
2023-04-18T10:42:14.856Z,90905.53
2023-04-18T10:44:41.153Z,90901.72
2023-04-18T10:47:07.590Z,90902.09
2023-04-18T10:49:34.647Z,90902.50
2023-04-18T10:52:01.285Z,90899.28
2023-04-18T10:54:46.559Z,90902.63
2023-04-18T10:57:13.749Z,90899.44
2023-04-18T10:59:41.562Z,90897.31
2023-04-18T11:02:13.898Z,90885.25
2023-04-18T11:04:40.274Z,90888.91
2023-04-18T11:07:06.609Z,90882.00
2023-04-18T11:09:32.998Z,90876.91
2023-04-18T11:12:06.439Z,90876.66
2023-04-18T11:14:41.935Z,90877.97
2023-04-18T11:17:17.840Z,90869.81
2023-04-18T11:19:44.184Z,90876.72
2023-04-18T11:22:10.794Z,90872.78
2023-04-18T11:24:37.083Z,90870.50
2023-04-18T11:27:03.456Z,90865.47
2023-04-18T11:29:29.790Z,90859.19
2023-04-18T11:31:58.330Z,90872.56
2023-04-18T11:34:28.461Z,90862.19
2023-04-18T11:36:54.744Z,90866.34
2023-04-18T11:39:21.047Z,90859.88
2023-04-18T11:41:50.502Z,90861.06
2023-04-18T11:44:23.367Z,90865.69
2023-04-18T11:46:51.283Z,90852.84
2023-04-18T11:49:27.312Z,90855.69
2023-04-18T11:51:53.681Z,90857.22
2023-04-18T11:54:38.948Z,90857.53
2023-04-18T11:57:05.870Z,90852.53
2023-04-18T11:59:32.232Z,90860.63
2023-04-18T12:02:15.559Z,90857.16
2023-04-18T12:04:50.003Z,90858.22
2023-04-18T12:07:16.540Z,90862.25
2023-04-18T12:09:42.821Z,90867.72
2023-04-18T12:12:09.245Z,90863.50
2023-04-18T12:14:35.641Z,90857.19
2023-04-18T12:17:03.038Z,90852.16
2023-04-18T12:19:29.338Z,90866.13
2023-04-18T12:21:56.688Z,90863.00
2023-04-18T12:24:27.358Z,90855.22
2023-04-18T12:26:53.650Z,90854.00
2023-04-18T12:29:19.968Z,90851.91
2023-04-18T12:31:46.792Z,90866.28
2023-04-18T12:34:13.652Z,90861.41
2023-04-18T12:36:40.385Z,90858.28
2023-04-18T12:39:06.736Z,90853.66
2023-04-18T12:41:33.096Z,90860.28
2023-04-18T12:43:59.638Z,90862.44
2023-04-18T12:46:25.967Z,90854.69
2023-04-18T12:48:52.310Z,90845.81
2023-04-18T12:51:18.707Z,90851.00
2023-04-18T12:53:45.010Z,90853.72
2023-04-18T12:56:11.340Z,90849.88
2023-04-18T12:58:37.661Z,90852.66
2023-04-18T13:01:04.742Z,90855.19
2023-04-18T13:03:31.805Z,90847.34
2023-04-18T13:05:58.194Z,90847.00
2023-04-18T13:08:24.473Z,90848.81
2023-04-18T13:10:50.774Z,90845.75
2023-04-18T13:13:17.130Z,90847.69
2023-04-18T13:15:43.413Z,90855.44
2023-04-18T13:18:09.711Z,90852.69
2023-04-18T13:20:36.553Z,90858.09
2023-04-18T13:23:02.943Z,90859.84
2023-04-18T13:25:29.246Z,90853.03
2023-04-18T13:27:56.248Z,90853.00
2023-04-18T13:30:22.562Z,90859.72
2023-04-18T13:32:48.928Z,90860.84
2023-04-18T13:35:15.307Z,90857.63
2023-04-18T13:37:41.676Z,90859.47
2023-04-18T13:40:08.210Z,90858.47
2023-04-18T13:42:35.299Z,90850.44
2023-04-18T13:45:01.682Z,90844.91
2023-04-18T13:47:28.164Z,90850.09
2023-04-18T13:49:54.504Z,90854.84
2023-04-18T13:52:20.774Z,90855.53
2023-04-18T13:54:47.991Z,90848.28
2023-04-18T13:57:14.634Z,90858.00
2023-04-18T13:59:40.990Z,90850.69
2023-04-18T14:02:07.985Z,90853.38
2023-04-18T14:04:34.695Z,90846.28
2023-04-18T14:07:01.550Z,90846.06
2023-04-18T14:09:27.914Z,90849.66
2023-04-18T14:11:54.234Z,90843.16
2023-04-18T14:14:20.667Z,90848.50
2023-04-18T14:16:47.036Z,90844.06
2023-04-18T14:19:13.741Z,90848.69
2023-04-18T14:21:40.453Z,90849.53
2023-04-18T14:24:07.946Z,90849.78
2023-04-18T14:26:34.219Z,90849.41
2023-04-18T14:29:00.910Z,90842.31
2023-04-18T14:31:28.105Z,90845.44
2023-04-18T14:33:54.457Z,90840.09
2023-04-18T14:36:20.879Z,90844.84
2023-04-18T14:38:48.175Z,90845.69
2023-04-18T14:41:14.632Z,90856.47
2023-04-18T14:43:40.951Z,90850.00
2023-04-18T14:46:13.741Z,90839.56
2023-04-18T14:48:40.124Z,90848.81
2023-04-18T14:51:06.968Z,90849.72
2023-04-18T14:53:33.309Z,90852.88
2023-04-18T14:55:59.592Z,90856.25
2023-04-18T14:58:25.868Z,90853.94
2023-04-18T15:00:52.186Z,90858.56
2023-04-18T15:03:18.553Z,90862.41
2023-04-18T15:05:46.531Z,90855.91
2023-04-18T15:08:13.060Z,90857.25
2023-04-18T15:10:40.245Z,90856.25
2023-04-18T15:13:06.544Z,90857.84
2023-04-18T15:15:35.497Z,90851.31
2023-04-18T15:18:02.432Z,90853.72
2023-04-18T15:20:31.455Z,90852.25
2023-04-18T15:22:57.811Z,90855.34
2023-04-18T15:25:25.930Z,90859.44
2023-04-18T15:27:52.400Z,90854.31
2023-04-18T15:30:20.527Z,90867.56
2023-04-18T15:32:47.568Z,90859.66
2023-04-18T15:35:13.994Z,90858.59
2023-04-18T15:37:40.356Z,90859.91
2023-04-18T15:40:09.345Z,90855.88
2023-04-18T15:42:35.750Z,90855.22
2023-04-18T15:45:02.057Z,90859.81
2023-04-18T15:47:37.169Z,90865.03
2023-04-18T15:50:03.638Z,90875.19
2023-04-18T15:52:29.995Z,90866.75
2023-04-18T15:54:57.130Z,90869.09
2023-04-18T15:57:23.439Z,90870.94
2023-04-18T15:59:49.751Z,90860.78
2023-04-18T16:02:16.042Z,90866.31
2023-04-18T16:04:42.501Z,90868.91
2023-04-18T16:07:09.031Z,90864.88
2023-04-18T16:09:35.650Z,90864.78
2023-04-18T16:12:03.181Z,90875.69
2023-04-18T16:14:30.346Z,90877.13
2023-04-18T16:16:58.981Z,90870.56
2023-04-18T16:19:25.303Z,90877.34
2023-04-18T16:21:51.746Z,90882.34
2023-04-18T16:24:18.100Z,90876.41
2023-04-18T16:26:44.378Z,90884.13
2023-04-18T16:29:10.693Z,90883.50
2023-04-18T16:31:37.098Z,90881.97
2023-04-18T16:34:03.428Z,90887.78
2023-04-18T16:36:29.720Z,90883.84
2023-04-18T16:38:56.075Z,90888.94
2023-04-18T16:41:22.366Z,90890.03
2023-04-18T16:43:48.737Z,90887.63
2023-04-18T16:46:15.346Z,90887.31
2023-04-18T16:48:41.731Z,90892.31
2023-04-18T16:51:08.036Z,90889.06
2023-04-18T16:53:34.358Z,90890.78
2023-04-18T16:56:00.849Z,90895.88
2023-04-18T16:58:27.160Z,90894.50
2023-04-18T17:00:53.474Z,90893.78
2023-04-18T17:03:19.934Z,90901.34
2023-04-18T17:05:46.460Z,90898.22
2023-04-18T17:08:12.780Z,90900.75
2023-04-18T17:10:39.092Z,90902.03
2023-04-18T17:13:05.393Z,90912.47
2023-04-18T17:15:31.710Z,90910.03
2023-04-18T17:18:00.189Z,90904.47
2023-04-18T17:20:27.893Z,90914.56
2023-04-18T17:22:54.385Z,90908.41
2023-04-18T17:25:20.810Z,90916.03
2023-04-18T17:27:47.096Z,90914.88
2023-04-18T17:30:13.391Z,90919.88
2023-04-18T17:32:45.456Z,90918.47
2023-04-18T17:35:12.202Z,90917.69
2023-04-18T17:37:38.541Z,90920.44
2023-04-18T17:40:09.721Z,90922.78
2023-04-18T17:42:36.777Z,90924.53
2023-04-18T17:45:03.846Z,90929.72
2023-04-18T17:47:31.601Z,90928.00
2023-04-18T17:49:57.910Z,90929.81
2023-04-18T17:52:24.191Z,90934.81
2023-04-18T17:54:50.488Z,90934.59
2023-04-18T17:57:16.783Z,90942.34
2023-04-18T17:59:43.094Z,90947.22
2023-04-18T18:02:11.559Z,90947.31
2023-04-18T18:04:38.479Z,90947.78
2023-04-18T18:07:04.814Z,90948.75
2023-04-18T18:09:31.098Z,90958.56
2023-04-18T18:11:58.549Z,90963.91
2023-04-18T18:14:24.894Z,90954.88
2023-04-18T18:16:51.321Z,90963.47
2023-04-18T18:19:17.670Z,90965.34
2023-04-18T18:21:43.977Z,90972.41
2023-04-18T18:24:10.720Z,90980.63
2023-04-18T18:26:37.030Z,90982.09
2023-04-18T18:29:09.040Z,90977.16
2023-04-18T18:31:35.649Z,90979.09
2023-04-18T18:34:01.985Z,90988.69
2023-04-18T18:36:28.452Z,90992.25
2023-04-18T18:38:54.774Z,90988.66
2023-04-18T18:41:22.482Z,91000.81
2023-04-18T18:43:49.015Z,91000.00
2023-04-18T18:46:15.590Z,91008.19
2023-04-18T18:48:41.989Z,91006.41
2023-04-18T18:51:08.758Z,91011.06
2023-04-18T18:53:35.053Z,91018.84
2023-04-18T18:56:01.415Z,91021.97
2023-04-18T18:58:27.783Z,91023.47
2023-04-18T19:00:56.075Z,91027.09
2023-04-18T19:03:22.599Z,91030.31
2023-04-18T19:05:48.964Z,91032.06
2023-04-18T19:08:15.421Z,91027.69
2023-04-18T19:10:41.868Z,91037.66
2023-04-18T19:13:08.169Z,91036.47
2023-04-18T19:15:34.487Z,91043.78
2023-04-18T19:18:01.520Z,91042.84
2023-04-18T19:20:29.235Z,91032.22
2023-04-18T19:22:55.698Z,91038.94
2023-04-18T19:25:21.976Z,91043.94
2023-04-18T19:27:48.311Z,91045.69
2023-04-18T19:30:14.611Z,91050.44
2023-04-18T19:32:40.970Z,91055.50
2023-04-18T19:35:09.739Z,91047.66
2023-04-18T19:37:36.113Z,91050.72
2023-04-18T19:40:02.759Z,91052.25
2023-04-18T19:42:29.165Z,91052.69
2023-04-18T19:44:56.306Z,91058.09
2023-04-18T19:47:22.760Z,91062.44
2023-04-18T19:49:49.061Z,91062.84
2023-04-18T19:52:16.481Z,91067.34
2023-04-18T19:54:42.805Z,91061.06
2023-04-18T19:57:09.095Z,91070.16
2023-04-18T19:59:35.382Z,91071.00
2023-04-18T20:02:04.353Z,91069.03
2023-04-18T20:04:34.253Z,91074.59
2023-04-18T20:07:02.279Z,91072.13
2023-04-18T20:09:28.583Z,91082.03
2023-04-18T20:11:54.915Z,91078.81
2023-04-18T20:14:21.236Z,91084.50
2023-04-18T20:16:49.467Z,91094.31
2023-04-18T20:19:17.723Z,91090.91
2023-04-18T20:21:44.269Z,91094.69
2023-04-18T20:24:10.606Z,91093.03
2023-04-18T20:26:37.055Z,91093.69
2023-04-18T20:29:03.826Z,91091.72
2023-04-18T20:31:30.179Z,91104.72
2023-04-18T20:33:56.500Z,91104.28
2023-04-18T20:36:23.508Z,91094.53
2023-04-18T20:38:50.285Z,91104.28
2023-04-18T20:41:23.998Z,91110.41
2023-04-18T20:43:53.558Z,91108.72
2023-04-18T20:46:19.928Z,91115.72
2023-04-18T20:48:46.271Z,91111.63
2023-04-18T20:51:12.545Z,91111.75
2023-04-18T20:53:38.854Z,91120.38
2023-04-18T20:56:05.260Z,91118.69
2023-04-18T20:58:31.571Z,91116.56
2023-04-18T21:00:57.946Z,91115.44
2023-04-18T21:03:24.512Z,91122.16
2023-04-18T21:05:50.935Z,91128.97
2023-04-18T21:08:17.211Z,91128.00
2023-04-18T21:10:43.534Z,91130.06
2023-04-18T21:13:12.352Z,91131.41
2023-04-18T21:15:39.042Z,91127.31
2023-04-18T21:18:05.556Z,91140.00
2023-04-18T21:20:34.081Z,91134.50
2023-04-18T21:23:00.354Z,91144.41
2023-04-18T21:25:26.651Z,91149.38
2023-04-18T21:27:52.926Z,91152.47
2023-04-18T21:30:19.309Z,91156.38
2023-04-18T21:32:46.061Z,91164.19
2023-04-18T21:35:12.460Z,91160.50
2023-04-18T21:37:38.753Z,91155.38
2023-04-18T21:40:05.363Z,91156.31
2023-04-18T21:42:31.706Z,91169.09
2023-04-18T21:44:58.063Z,91170.22
2023-04-18T21:47:25.804Z,91168.94
2023-04-18T21:49:52.154Z,91177.97
2023-04-18T21:52:18.414Z,91173.22
2023-04-18T21:54:44.726Z,91178.84
2023-04-18T21:57:11.043Z,91174.94
2023-04-18T21:59:37.322Z,91181.66
2023-04-18T22:02:04.775Z,91182.50
2023-04-18T22:04:31.219Z,91183.06
2023-04-18T22:06:57.540Z,91188.41
2023-04-18T22:09:23.865Z,91183.66
2023-04-18T22:11:51.715Z,91189.34
2023-04-18T22:14:19.942Z,91183.56
2023-04-18T22:16:46.297Z,91185.75
2023-04-18T22:19:13.549Z,91181.41
2023-04-18T22:21:39.822Z,91189.66
2023-04-18T22:24:06.480Z,91189.97
2023-04-18T22:26:32.743Z,91187.63
2023-04-18T22:28:59.061Z,91191.81
2023-04-18T22:31:25.434Z,91191.22
2023-04-18T22:33:51.863Z,91193.63
2023-04-18T22:36:18.145Z,91200.16
2023-04-18T22:38:44.422Z,91200.88
2023-04-18T22:41:10.717Z,91194.72
2023-04-18T22:43:37.041Z,91194.56
2023-04-18T22:46:03.607Z,91197.44
2023-04-18T22:48:29.962Z,91197.06
2023-04-18T22:50:56.279Z,91201.56
2023-04-18T22:53:22.970Z,91202.34
2023-04-18T22:55:49.304Z,91201.00
2023-04-18T22:58:15.699Z,91208.84
2023-04-18T23:00:42.031Z,91206.44
2023-04-18T23:03:08.602Z,91212.41
2023-04-18T23:05:35.270Z,91205.19
2023-04-18T23:08:01.550Z,91213.50
2023-04-18T23:10:27.830Z,91210.25
2023-04-18T23:12:54.196Z,91207.06
2023-04-18T23:15:22.703Z,91210.41
2023-04-18T23:17:50.979Z,91212.47
2023-04-18T23:20:17.327Z,91219.09
2023-04-18T23:22:43.829Z,91208.34
2023-04-18T23:25:10.196Z,91207.19
2023-04-18T23:27:36.496Z,91216.47
2023-04-18T23:30:02.830Z,91208.44
2023-04-18T23:32:29.244Z,91224.75
2023-04-18T23:34:55.599Z,91211.47
2023-04-18T23:37:21.916Z,91210.75
2023-04-18T23:39:48.412Z,91217.06
2023-04-18T23:42:14.708Z,91213.94
2023-04-18T23:44:40.994Z,91212.13
2023-04-18T23:47:07.300Z,91213.84
2023-04-18T23:49:33.604Z,91208.06
2023-04-18T23:51:59.878Z,91212.03
2023-04-18T23:54:26.171Z,91218.03
2023-04-18T23:56:52.489Z,91209.19
2023-04-18T23:59:18.812Z,91215.47
